createdAt,value
2018-12-06T00:03:47.676Z,16.80
2018-12-06T00:08:50.878Z,16.80
2018-12-06T00:13:54.141Z,16.80
2018-12-06T00:19:10.374Z,16.70
2018-12-06T00:24:13.530Z,16.70
2018-12-06T00:29:16.898Z,16.60
2018-12-06T00:34:20.266Z,16.60
2018-12-06T00:39:23.516Z,16.50
2018-12-06T00:44:26.720Z,16.60
2018-12-06T00:49:30.001Z,16.60
2018-12-06T00:54:33.456Z,16.50
2018-12-06T00:59:36.684Z,16.50
2018-12-06T01:04:40.006Z,16.50
2018-12-06T01:09:43.240Z,16.50
2018-12-06T01:14:46.534Z,16.50
2018-12-06T01:19:49.812Z,16.50
2018-12-06T01:24:53.063Z,16.40
2018-12-06T01:29:56.354Z,16.50
2018-12-06T01:34:59.578Z,16.40
2018-12-06T01:40:02.769Z,16.40
2018-12-06T01:45:06.450Z,16.30
2018-12-06T01:50:09.681Z,16.30
2018-12-06T01:55:12.889Z,16.30
2018-12-06T02:00:16.179Z,16.30
2018-12-06T02:05:19.391Z,16.30
2018-12-06T02:10:22.625Z,16.30
2018-12-06T02:15:25.783Z,16.30
2018-12-06T02:20:28.955Z,16.20
2018-12-06T02:25:32.160Z,16.30
2018-12-06T02:30:35.390Z,16.20
2018-12-06T02:35:38.590Z,16.20
2018-12-06T02:40:41.759Z,16.10
2018-12-06T02:45:44.925Z,16.10
2018-12-06T02:50:48.106Z,16.10
2018-12-06T02:55:51.344Z,16.10
2018-12-06T03:00:54.763Z,16.10
2018-12-06T03:05:57.966Z,16.10
2018-12-06T03:11:01.179Z,16.00
2018-12-06T03:16:04.541Z,16.00
2018-12-06T03:21:07.768Z,16.00
2018-12-06T03:26:10.987Z,16.00
2018-12-06T03:31:14.213Z,16.00
2018-12-06T03:36:17.484Z,15.90
2018-12-06T03:41:20.784Z,16.00
2018-12-06T03:46:24.064Z,16.00
2018-12-06T03:51:27.350Z,15.90
2018-12-06T03:56:30.686Z,15.90
2018-12-06T04:01:33.997Z,15.90
2018-12-06T04:06:37.222Z,15.90
2018-12-06T04:11:40.596Z,15.90
2018-12-06T04:16:43.914Z,15.90
2018-12-06T04:21:47.132Z,15.90
2018-12-06T04:26:50.354Z,15.90
2018-12-06T04:31:53.640Z,15.80
2018-12-06T04:36:56.913Z,15.80
2018-12-06T04:42:00.111Z,15.90
2018-12-06T04:47:03.313Z,15.90
2018-12-06T04:52:07.030Z,15.90
2018-12-06T04:57:10.270Z,15.80
2018-12-06T05:02:13.536Z,15.80
2018-12-06T05:07:16.720Z,15.80
2018-12-06T05:12:19.953Z,15.80
2018-12-06T05:17:23.315Z,15.80
2018-12-06T05:22:26.582Z,15.80
2018-12-06T05:27:29.794Z,15.80
2018-12-06T05:32:33.071Z,15.80
2018-12-06T05:37:36.322Z,15.80
2018-12-06T05:42:39.717Z,15.80
2018-12-06T05:47:42.947Z,15.80
2018-12-06T05:52:46.191Z,15.80
2018-12-06T05:57:49.472Z,15.80
2018-12-06T06:02:52.716Z,15.80
2018-12-06T06:07:55.984Z,15.80
2018-12-06T06:12:59.381Z,15.70
2018-12-06T06:18:02.679Z,15.70
2018-12-06T06:23:05.877Z,15.70
2018-12-06T06:28:09.170Z,15.70
2018-12-06T06:33:12.581Z,15.60
2018-12-06T06:38:15.820Z,15.60
2018-12-06T06:43:19.399Z,15.60
2018-12-06T06:48:23.025Z,15.60
2018-12-06T06:53:26.176Z,15.50
2018-12-06T06:58:29.388Z,15.60
2018-12-06T07:03:32.591Z,15.50
2018-12-06T07:08:35.892Z,15.60
2018-12-06T07:13:39.304Z,15.60
2018-12-06T07:18:42.740Z,15.50
2018-12-06T07:23:45.964Z,15.50
2018-12-06T07:28:49.363Z,15.60
2018-12-06T07:33:52.958Z,15.50
2018-12-06T07:38:57.181Z,15.50
2018-12-06T07:44:00.367Z,15.50
2018-12-06T07:49:03.633Z,15.50
2018-12-06T07:54:06.832Z,15.40
2018-12-06T07:59:10.078Z,15.50
2018-12-06T08:04:13.312Z,15.40
2018-12-06T08:09:16.518Z,15.50
2018-12-06T08:14:46.237Z,15.60
2018-12-06T08:19:51.204Z,15.60
2018-12-06T08:24:56.021Z,15.60
2018-12-06T08:30:00.468Z,15.60
2018-12-06T08:35:03.743Z,15.60
2018-12-06T08:40:07.695Z,15.60
2018-12-06T08:45:10.876Z,15.60
2018-12-06T08:50:14.088Z,15.60
2018-12-06T08:55:21.168Z,15.60
2018-12-06T09:00:26.618Z,15.60
2018-12-06T09:05:29.864Z,15.60
2018-12-06T09:10:33.119Z,15.60
2018-12-06T09:15:36.310Z,15.60
2018-12-06T09:20:41.432Z,15.60
2018-12-06T09:25:46.315Z,15.60
2018-12-06T09:30:51.764Z,15.60
2018-12-06T09:35:59.251Z,15.60
2018-12-06T09:41:02.725Z,15.60
2018-12-06T09:46:06.894Z,15.60
2018-12-06T09:51:10.144Z,15.60
2018-12-06T09:56:13.348Z,15.60
2018-12-06T10:01:16.561Z,15.60
2018-12-06T10:06:19.787Z,15.60
2018-12-06T10:11:24.719Z,15.60
2018-12-06T10:16:27.985Z,15.70
2018-12-06T10:21:31.222Z,15.60
2018-12-06T10:26:34.454Z,15.60
2018-12-06T10:31:37.761Z,15.60
2018-12-06T10:36:41.790Z,15.60
2018-12-06T10:41:45.030Z,15.60
2018-12-06T10:46:48.263Z,15.60
2018-12-06T10:51:51.523Z,15.60
2018-12-06T10:56:54.785Z,15.60
2018-12-06T11:02:06.701Z,15.60
2018-12-06T11:07:10.034Z,15.60
2018-12-06T11:12:13.404Z,15.60
2018-12-06T11:17:17.310Z,15.50
2018-12-06T11:22:20.614Z,15.50
2018-12-06T11:27:23.866Z,15.50
2018-12-06T11:32:27.146Z,15.60
2018-12-06T11:37:30.456Z,15.60
2018-12-06T11:42:33.866Z,15.60
2018-12-06T11:47:37.225Z,15.70
2018-12-06T11:52:40.492Z,15.90
2018-12-06T11:57:43.772Z,16.10
2018-12-06T12:02:47.042Z,16.50
2018-12-06T12:07:50.300Z,16.80
2018-12-06T12:12:53.528Z,17.10
2018-12-06T12:17:56.741Z,17.30
2018-12-06T12:23:00.006Z,17.60
2018-12-06T12:28:03.269Z,17.90
2018-12-06T12:33:06.902Z,18.10
2018-12-06T12:38:10.838Z,18.10
2018-12-06T12:43:14.131Z,18.30
2018-12-06T12:48:17.632Z,18.50
2018-12-06T12:53:21.060Z,18.60
2018-12-06T12:58:25.228Z,18.50
2018-12-06T13:03:29.710Z,18.40
2018-12-06T13:08:32.986Z,18.30
2018-12-06T13:13:36.266Z,18.20
2018-12-06T13:18:39.493Z,18.10
2018-12-06T13:23:42.714Z,18.20
2018-12-06T13:28:46.068Z,18.50
2018-12-06T13:33:49.376Z,18.70
2018-12-06T13:38:56.394Z,18.70
2018-12-06T13:43:59.706Z,18.80
2018-12-06T13:49:03.176Z,18.70
2018-12-06T13:54:06.426Z,18.60
2018-12-06T13:59:10.343Z,18.50
2018-12-06T14:04:13.600Z,18.40
2018-12-06T14:09:17.053Z,18.60
2018-12-06T14:14:21.478Z,18.90
2018-12-06T14:19:24.829Z,19.10
2018-12-06T14:24:30.017Z,19.10
2018-12-06T14:29:33.921Z,19.20
2018-12-06T14:34:37.330Z,19.20
2018-12-06T14:39:40.619Z,19.10
2018-12-06T14:44:43.927Z,18.90
2018-12-06T14:49:47.195Z,18.90
2018-12-06T14:54:50.660Z,19.20
2018-12-06T14:59:53.960Z,19.50
2018-12-06T15:04:57.246Z,19.60
2018-12-06T15:10:02.399Z,19.70
2018-12-06T15:15:05.873Z,19.70
2018-12-06T15:20:09.228Z,19.60
2018-12-06T15:25:13.011Z,19.40
2018-12-06T15:30:16.328Z,19.40
2018-12-06T15:35:19.593Z,19.40
2018-12-06T15:40:23.457Z,19.50
2018-12-06T15:45:26.774Z,19.80
2018-12-06T15:50:30.271Z,19.90
2018-12-06T15:55:33.531Z,20.00
2018-12-06T16:00:36.834Z,19.80
2018-12-06T16:05:43.512Z,19.60
2018-12-06T16:10:46.991Z,19.60
2018-12-06T16:15:50.965Z,19.50
2018-12-06T16:20:54.535Z,19.40
2018-12-06T16:25:58.414Z,19.60
2018-12-06T16:31:01.642Z,19.70
2018-12-06T16:36:04.873Z,19.80
2018-12-06T16:41:08.154Z,19.80
2018-12-06T16:46:11.467Z,19.80
2018-12-06T16:51:14.964Z,19.80
2018-12-06T16:56:18.480Z,19.60
2018-12-06T17:01:21.752Z,19.50
2018-12-06T17:06:24.978Z,19.40
2018-12-06T17:11:28.687Z,19.70
2018-12-06T17:16:31.898Z,20.00
2018-12-06T17:21:37.203Z,20.10
2018-12-06T17:26:40.498Z,20.10
2018-12-06T17:31:43.988Z,20.10
2018-12-06T17:36:47.852Z,20.10
2018-12-06T17:41:51.120Z,19.90
2018-12-06T17:46:54.782Z,19.80
2018-12-06T17:51:58.075Z,19.80
2018-12-06T17:57:01.424Z,19.80
2018-12-06T18:02:04.706Z,20.10
2018-12-06T18:07:09.667Z,20.30
2018-12-06T18:12:13.080Z,20.40
2018-12-06T18:17:16.660Z,20.30
2018-12-06T18:22:19.944Z,20.10
2018-12-06T18:27:23.489Z,20.00
2018-12-06T18:32:26.707Z,20.10
2018-12-06T18:37:30.786Z,20.10
2018-12-06T18:42:34.162Z,20.00
2018-12-06T18:47:37.449Z,20.00
2018-12-06T18:52:40.923Z,19.90
2018-12-06T18:57:47.066Z,19.80
2018-12-06T19:02:50.380Z,19.60
2018-12-06T19:07:54.142Z,19.50
2018-12-06T19:12:57.448Z,19.40
2018-12-06T19:18:00.731Z,19.30
2018-12-06T19:23:04.021Z,19.20
2018-12-06T19:28:07.455Z,19.10
2018-12-06T19:33:10.745Z,19.00
2018-12-06T19:38:14.139Z,18.90
2018-12-06T19:43:17.678Z,18.90
2018-12-06T19:48:21.435Z,18.90
2018-12-06T19:53:24.845Z,18.80
2018-12-06T19:58:28.118Z,18.70
2018-12-06T20:03:31.466Z,18.70
2018-12-06T20:08:34.830Z,18.80
2018-12-06T20:13:38.135Z,18.90
2018-12-06T20:18:41.665Z,19.00
2018-12-06T20:23:44.995Z,19.00
2018-12-06T20:28:50.805Z,19.00
2018-12-06T20:33:56.653Z,19.00
2018-12-06T20:38:59.902Z,19.00
2018-12-06T20:44:03.410Z,19.00
2018-12-06T20:49:06.714Z,19.00
2018-12-06T20:54:09.956Z,19.00
2018-12-06T20:59:13.269Z,18.90
2018-12-06T21:04:16.738Z,18.90
2018-12-06T21:09:20.336Z,18.80
2018-12-06T21:14:24.031Z,18.80
2018-12-06T21:19:27.885Z,18.70
2018-12-06T21:24:31.261Z,18.70
2018-12-06T21:29:34.741Z,18.60
2018-12-06T21:34:38.632Z,18.60
2018-12-06T21:39:42.132Z,18.60
2018-12-06T21:44:45.500Z,18.50
2018-12-06T21:49:49.209Z,18.50
2018-12-06T21:54:52.614Z,18.60
2018-12-06T21:59:55.938Z,18.80
2018-12-06T22:04:59.314Z,19.00
2018-12-06T22:10:02.789Z,19.10
2018-12-06T22:15:06.248Z,19.10
2018-12-06T22:20:09.778Z,19.20
2018-12-06T22:25:13.010Z,19.20
2018-12-06T22:30:16.438Z,19.20
2018-12-06T22:35:19.708Z,19.20
2018-12-06T22:40:23.004Z,19.10
2018-12-06T22:46:01.381Z,19.00
2018-12-06T22:51:04.758Z,19.00
2018-12-06T22:56:08.185Z,18.90
2018-12-06T23:01:11.587Z,18.80
2018-12-06T23:06:15.072Z,18.80
2018-12-06T23:11:18.295Z,18.70
2018-12-06T23:16:21.576Z,18.70
2018-12-06T23:21:24.800Z,18.60
2018-12-06T23:26:28.000Z,18.60
2018-12-06T23:31:31.231Z,18.60
2018-12-06T23:36:34.434Z,18.50
2018-12-06T23:41:37.648Z,18.40
2018-12-06T23:46:40.892Z,18.40
2018-12-06T23:51:44.289Z,18.30
2018-12-06T23:56:47.517Z,18.30
